sensor_id;sensor_type;location;lat;lon;timestamp;P1;durP1;ratioP1;P2;durP2;ratioP2
20743;SDS011;56303;52.160;-0.428;2023-02-28T00:00:34;11.03;;;3.53;;
20743;SDS011;56303;52.160;-0.428;2023-02-28T00:03:02;8.40;;;3.90;;
20743;SDS011;56303;52.160;-0.428;2023-02-28T00:05:29;6.93;;;3.50;;
20743;SDS011;56303;52.160;-0.428;2023-02-28T00:07:56;8.77;;;3.80;;
20743;SDS011;56303;52.160;-0.428;2023-02-28T00:10:24;6.20;;;4.17;;
20743;SDS011;56303;52.160;-0.428;2023-02-28T00:12:54;7.87;;;4.03;;
20743;SDS011;56303;52.160;-0.428;2023-02-28T00:15:23;11.53;;;4.30;;
20743;SDS011;56303;52.160;-0.428;2023-02-28T00:17:50;6.20;;;4.17;;
20743;SDS011;56303;52.160;-0.428;2023-02-28T00:20:17;7.17;;;4.73;;
20743;SDS011;56303;52.160;-0.428;2023-02-28T00:22:46;10.83;;;5.20;;
20743;SDS011;56303;52.160;-0.428;2023-02-28T00:25:16;11.00;;;4.83;;
20743;SDS011;56303;52.160;-0.428;2023-02-28T00:27:45;10.67;;;5.00;;
20743;SDS011;56303;52.160;-0.428;2023-02-28T00:30:13;9.90;;;4.43;;
20743;SDS011;56303;52.160;-0.428;2023-02-28T00:32:45;6.97;;;4.73;;
20743;SDS011;56303;52.160;-0.428;2023-02-28T00:35:12;9.33;;;5.17;;
20743;SDS011;56303;52.160;-0.428;2023-02-28T00:37:39;7.93;;;4.93;;
20743;SDS011;56303;52.160;-0.428;2023-02-28T00:40:06;10.37;;;4.97;;
20743;SDS011;56303;52.160;-0.428;2023-02-28T00:42:34;9.80;;;4.90;;
20743;SDS011;56303;52.160;-0.428;2023-02-28T00:45:02;9.73;;;5.27;;
20743;SDS011;56303;52.160;-0.428;2023-02-28T00:47:31;8.63;;;4.43;;
20743;SDS011;56303;52.160;-0.428;2023-02-28T00:49:58;8.07;;;4.40;;
20743;SDS011;56303;52.160;-0.428;2023-02-28T00:52:25;6.83;;;4.37;;
20743;SDS011;56303;52.160;-0.428;2023-02-28T00:54:52;8.03;;;4.80;;
20743;SDS011;56303;52.160;-0.428;2023-02-28T00:57:19;9.30;;;5.10;;
20743;SDS011;56303;52.160;-0.428;2023-02-28T00:59:46;8.67;;;4.70;;
20743;SDS011;56303;52.160;-0.428;2023-02-28T01:02:13;9.53;;;5.70;;
20743;SDS011;56303;52.160;-0.428;2023-02-28T01:04:40;10.47;;;6.23;;
20743;SDS011;56303;52.160;-0.428;2023-02-28T01:07:07;9.67;;;6.80;;
20743;SDS011;56303;52.160;-0.428;2023-02-28T01:09:34;9.93;;;7.33;;
20743;SDS011;56303;52.160;-0.428;2023-02-28T01:12:01;13.17;;;8.90;;
20743;SDS011;56303;52.160;-0.428;2023-02-28T01:14:27;14.00;;;7.63;;
20743;SDS011;56303;52.160;-0.428;2023-02-28T01:16:54;12.60;;;7.37;;
20743;SDS011;56303;52.160;-0.428;2023-02-28T01:19:21;12.40;;;8.97;;
20743;SDS011;56303;52.160;-0.428;2023-02-28T01:21:48;12.70;;;8.43;;
20743;SDS011;56303;52.160;-0.428;2023-02-28T01:24:14;10.43;;;9.10;;
20743;SDS011;56303;52.160;-0.428;2023-02-28T01:26:41;12.30;;;9.40;;
20743;SDS011;56303;52.160;-0.428;2023-02-28T01:29:08;14.30;;;10.00;;
20743;SDS011;56303;52.160;-0.428;2023-02-28T01:31:35;10.80;;;8.07;;
20743;SDS011;56303;52.160;-0.428;2023-02-28T01:34:02;13.37;;;9.87;;
20743;SDS011;56303;52.160;-0.428;2023-02-28T01:36:29;12.93;;;9.80;;
20743;SDS011;56303;52.160;-0.428;2023-02-28T01:38:56;14.10;;;9.30;;
20743;SDS011;56303;52.160;-0.428;2023-02-28T01:41:23;11.80;;;9.93;;
20743;SDS011;56303;52.160;-0.428;2023-02-28T01:46:29;15.27;;;10.97;;
20743;SDS011;56303;52.160;-0.428;2023-02-28T01:51:38;12.53;;;8.63;;
20743;SDS011;56303;52.160;-0.428;2023-02-28T01:54:12;14.43;;;8.40;;
20743;SDS011;56303;52.160;-0.428;2023-02-28T01:56:47;13.23;;;9.00;;
20743;SDS011;56303;52.160;-0.428;2023-02-28T01:59:25;13.43;;;9.90;;
20743;SDS011;56303;52.160;-0.428;2023-02-28T02:01:58;10.90;;;8.33;;
20743;SDS011;56303;52.160;-0.428;2023-02-28T02:04:27;12.90;;;9.50;;
20743;SDS011;56303;52.160;-0.428;2023-02-28T02:07:04;8.93;;;7.43;;
20743;SDS011;56303;52.160;-0.428;2023-02-28T02:09:31;11.33;;;7.60;;
20743;SDS011;56303;52.160;-0.428;2023-02-28T02:11:58;11.33;;;7.60;;
20743;SDS011;56303;52.160;-0.428;2023-02-28T02:15:12;13.20;;;8.80;;
20743;SDS011;56303;52.160;-0.428;2023-02-28T02:17:41;11.80;;;7.07;;
20743;SDS011;56303;52.160;-0.428;2023-02-28T02:37:34;11.20;;;7.13;;
20743;SDS011;56303;52.160;-0.428;2023-02-28T02:40:18;14.83;;;8.70;;
20743;SDS011;56303;52.160;-0.428;2023-02-28T02:43:07;12.87;;;11.00;;
20743;SDS011;56303;52.160;-0.428;2023-02-28T02:45:46;21.10;;;13.10;;
20743;SDS011;56303;52.160;-0.428;2023-02-28T02:48:18;27.93;;;16.93;;
20743;SDS011;56303;52.160;-0.428;2023-02-28T02:50:54;26.20;;;16.23;;
20743;SDS011;56303;52.160;-0.428;2023-02-28T02:53:33;37.03;;;19.17;;
20743;SDS011;56303;52.160;-0.428;2023-02-28T02:56:03;70.63;;;25.70;;
20743;SDS011;56303;52.160;-0.428;2023-02-28T02:58:37;58.40;;;23.13;;
20743;SDS011;56303;52.160;-0.428;2023-02-28T03:01:10;64.03;;;25.13;;
20743;SDS011;56303;52.160;-0.428;2023-02-28T03:03:40;78.17;;;29.83;;
20743;SDS011;56303;52.160;-0.428;2023-02-28T03:06:08;85.97;;;28.83;;
20743;SDS011;56303;52.160;-0.428;2023-02-28T03:08:36;55.03;;;25.47;;
20743;SDS011;56303;52.160;-0.428;2023-02-28T03:11:06;38.00;;;21.87;;
20743;SDS011;56303;52.160;-0.428;2023-02-28T03:13:43;51.53;;;25.50;;
20743;SDS011;56303;52.160;-0.428;2023-02-28T03:19:18;35.23;;;20.90;;
20743;SDS011;56303;52.160;-0.428;2023-02-28T03:22:16;49.30;;;25.23;;
20743;SDS011;56303;52.160;-0.428;2023-02-28T03:27:27;38.87;;;21.43;;
20743;SDS011;56303;52.160;-0.428;2023-02-28T03:30:41;39.60;;;22.87;;
20743;SDS011;56303;52.160;-0.428;2023-02-28T03:35:25;37.47;;;21.53;;
20743;SDS011;56303;52.160;-0.428;2023-02-28T03:38:00;33.20;;;19.30;;
20743;SDS011;56303;52.160;-0.428;2023-02-28T03:40:34;31.23;;;20.27;;
20743;SDS011;56303;52.160;-0.428;2023-02-28T03:43:04;26.43;;;17.80;;
20743;SDS011;56303;52.160;-0.428;2023-02-28T03:45:38;27.57;;;18.80;;
20743;SDS011;56303;52.160;-0.428;2023-02-28T03:48:09;24.83;;;16.77;;
20743;SDS011;56303;52.160;-0.428;2023-02-28T03:50:45;23.93;;;17.50;;
20743;SDS011;56303;52.160;-0.428;2023-02-28T03:56:30;20.33;;;15.40;;
20743;SDS011;56303;52.160;-0.428;2023-02-28T03:59:02;19.17;;;14.23;;
20743;SDS011;56303;52.160;-0.428;2023-02-28T04:04:04;17.97;;;13.77;;
20743;SDS011;56303;52.160;-0.428;2023-02-28T04:06:32;17.57;;;13.33;;
20743;SDS011;56303;52.160;-0.428;2023-02-28T04:09:00;17.10;;;13.30;;
20743;SDS011;56303;52.160;-0.428;2023-02-28T04:11:36;15.70;;;12.17;;
20743;SDS011;56303;52.160;-0.428;2023-02-28T04:14:05;15.13;;;12.30;;
20743;SDS011;56303;52.160;-0.428;2023-02-28T04:16:34;15.57;;;11.93;;
20743;SDS011;56303;52.160;-0.428;2023-02-28T04:19:03;15.27;;;11.47;;
20743;SDS011;56303;52.160;-0.428;2023-02-28T04:21:41;12.20;;;10.23;;
20743;SDS011;56303;52.160;-0.428;2023-02-28T04:24:10;12.60;;;10.53;;
20743;SDS011;56303;52.160;-0.428;2023-02-28T04:26:42;14.27;;;9.93;;
20743;SDS011;56303;52.160;-0.428;2023-02-28T04:29:11;13.30;;;9.97;;
20743;SDS011;56303;52.160;-0.428;2023-02-28T04:31:39;15.40;;;9.47;;
20743;SDS011;56303;52.160;-0.428;2023-02-28T04:34:06;13.13;;;9.43;;
20743;SDS011;56303;52.160;-0.428;2023-02-28T04:36:33;11.40;;;9.17;;
20743;SDS011;56303;52.160;-0.428;2023-02-28T04:39:00;10.23;;;8.47;;
20743;SDS011;56303;52.160;-0.428;2023-02-28T04:41:27;11.53;;;9.10;;
20743;SDS011;56303;52.160;-0.428;2023-02-28T04:43:57;10.60;;;8.80;;
20743;SDS011;56303;52.160;-0.428;2023-02-28T04:46:24;10.53;;;8.70;;
20743;SDS011;56303;52.160;-0.428;2023-02-28T04:48:51;12.17;;;8.60;;
20743;SDS011;56303;52.160;-0.428;2023-02-28T04:51:19;10.40;;;8.60;;
20743;SDS011;56303;52.160;-0.428;2023-02-28T04:53:46;11.80;;;8.13;;
20743;SDS011;56303;52.160;-0.428;2023-02-28T04:56:15;9.70;;;8.40;;
20743;SDS011;56303;52.160;-0.428;2023-02-28T04:58:43;9.03;;;7.77;;
20743;SDS011;56303;52.160;-0.428;2023-02-28T05:01:29;10.17;;;8.17;;
20743;SDS011;56303;52.160;-0.428;2023-02-28T05:04:00;8.90;;;7.10;;
20743;SDS011;56303;52.160;-0.428;2023-02-28T05:06:30;11.20;;;8.07;;
20743;SDS011;56303;52.160;-0.428;2023-02-28T05:08:58;10.00;;;7.90;;
20743;SDS011;56303;52.160;-0.428;2023-02-28T05:11:26;10.00;;;7.70;;
20743;SDS011;56303;52.160;-0.428;2023-02-28T05:14:01;9.10;;;7.30;;
20743;SDS011;56303;52.160;-0.428;2023-02-28T05:16:29;10.47;;;7.07;;
20743;SDS011;56303;52.160;-0.428;2023-02-28T05:18:57;8.87;;;6.60;;
20743;SDS011;56303;52.160;-0.428;2023-02-28T05:23:57;6.80;;;5.60;;
20743;SDS011;56303;52.160;-0.428;2023-02-28T05:26:25;9.33;;;5.70;;
20743;SDS011;56303;52.160;-0.428;2023-02-28T05:28:53;8.17;;;5.67;;
20743;SDS011;56303;52.160;-0.428;2023-02-28T05:31:21;7.43;;;5.23;;
20743;SDS011;56303;52.160;-0.428;2023-02-28T05:33:48;7.90;;;5.47;;
20743;SDS011;56303;52.160;-0.428;2023-02-28T05:36:15;8.07;;;5.77;;
20743;SDS011;56303;52.160;-0.428;2023-02-28T05:38:41;7.43;;;5.40;;
20743;SDS011;56303;52.160;-0.428;2023-02-28T05:41:09;7.43;;;4.83;;
20743;SDS011;56303;52.160;-0.428;2023-02-28T05:43:37;7.00;;;5.00;;
20743;SDS011;56303;52.160;-0.428;2023-02-28T05:46:05;7.87;;;5.67;;
20743;SDS011;56303;52.160;-0.428;2023-02-28T05:48:33;5.83;;;4.73;;
20743;SDS011;56303;52.160;-0.428;2023-02-28T05:51:01;6.23;;;4.80;;
20743;SDS011;56303;52.160;-0.428;2023-02-28T05:53:28;6.90;;;5.10;;
20743;SDS011;56303;52.160;-0.428;2023-02-28T05:55:56;5.83;;;4.77;;
20743;SDS011;56303;52.160;-0.428;2023-02-28T05:58:24;7.47;;;4.40;;
20743;SDS011;56303;52.160;-0.428;2023-02-28T06:00:58;7.70;;;5.23;;
20743;SDS011;56303;52.160;-0.428;2023-02-28T06:03:25;7.93;;;5.07;;
20743;SDS011;56303;52.160;-0.428;2023-02-28T06:05:53;6.60;;;4.87;;
20743;SDS011;56303;52.160;-0.428;2023-02-28T06:08:20;6.93;;;4.40;;
20743;SDS011;56303;52.160;-0.428;2023-02-28T06:10:47;7.60;;;4.57;;
20743;SDS011;56303;52.160;-0.428;2023-02-28T06:13:14;8.37;;;4.87;;
20743;SDS011;56303;52.160;-0.428;2023-02-28T06:15:41;6.67;;;4.37;;
20743;SDS011;56303;52.160;-0.428;2023-02-28T06:18:08;5.47;;;4.00;;
20743;SDS011;56303;52.160;-0.428;2023-02-28T06:20:35;5.67;;;4.10;;
20743;SDS011;56303;52.160;-0.428;2023-02-28T06:23:02;5.63;;;4.00;;
20743;SDS011;56303;52.160;-0.428;2023-02-28T06:25:29;6.27;;;3.83;;
20743;SDS011;56303;52.160;-0.428;2023-02-28T06:27:56;7.10;;;4.70;;
20743;SDS011;56303;52.160;-0.428;2023-02-28T06:30:23;6.80;;;4.10;;
20743;SDS011;56303;52.160;-0.428;2023-02-28T06:32:53;5.83;;;4.33;;
20743;SDS011;56303;52.160;-0.428;2023-02-28T06:35:20;6.70;;;3.77;;
20743;SDS011;56303;52.160;-0.428;2023-02-28T06:37:47;6.23;;;4.30;;
20743;SDS011;56303;52.160;-0.428;2023-02-28T06:40:14;5.77;;;4.03;;
20743;SDS011;56303;52.160;-0.428;2023-02-28T06:42:42;7.27;;;4.23;;
20743;SDS011;56303;52.160;-0.428;2023-02-28T06:45:09;7.33;;;4.70;;
20743;SDS011;56303;52.160;-0.428;2023-02-28T06:47:40;7.40;;;4.60;;
20743;SDS011;56303;52.160;-0.428;2023-02-28T06:50:09;6.23;;;4.13;;
20743;SDS011;56303;52.160;-0.428;2023-02-28T06:52:37;8.17;;;4.53;;
20743;SDS011;56303;52.160;-0.428;2023-02-28T06:55:05;7.00;;;5.50;;
20743;SDS011;56303;52.160;-0.428;2023-02-28T06:57:34;7.70;;;5.57;;
20743;SDS011;56303;52.160;-0.428;2023-02-28T07:00:05;7.97;;;5.27;;
20743;SDS011;56303;52.160;-0.428;2023-02-28T07:02:35;8.73;;;5.97;;
20743;SDS011;56303;52.160;-0.428;2023-02-28T07:05:04;8.80;;;5.90;;
20743;SDS011;56303;52.160;-0.428;2023-02-28T07:07:32;8.97;;;6.43;;
20743;SDS011;56303;52.160;-0.428;2023-02-28T07:09:59;7.77;;;5.10;;
20743;SDS011;56303;52.160;-0.428;2023-02-28T07:12:26;6.97;;;5.57;;
20743;SDS011;56303;52.160;-0.428;2023-02-28T07:14:53;8.47;;;5.80;;
20743;SDS011;56303;52.160;-0.428;2023-02-28T07:17:22;8.13;;;5.60;;
20743;SDS011;56303;52.160;-0.428;2023-02-28T07:19:48;7.30;;;5.57;;
20743;SDS011;56303;52.160;-0.428;2023-02-28T07:22:15;7.33;;;5.17;;
20743;SDS011;56303;52.160;-0.428;2023-02-28T07:24:42;6.90;;;5.10;;
20743;SDS011;56303;52.160;-0.428;2023-02-28T07:27:09;7.90;;;5.47;;
20743;SDS011;56303;52.160;-0.428;2023-02-28T07:29:36;7.40;;;5.10;;
20743;SDS011;56303;52.160;-0.428;2023-02-28T07:32:04;6.53;;;4.73;;
20743;SDS011;56303;52.160;-0.428;2023-02-28T07:34:31;6.27;;;4.30;;
20743;SDS011;56303;52.160;-0.428;2023-02-28T07:36:58;5.50;;;4.30;;
20743;SDS011;56303;52.160;-0.428;2023-02-28T07:39:25;6.00;;;4.07;;
20743;SDS011;56303;52.160;-0.428;2023-02-28T07:41:52;6.73;;;4.70;;
20743;SDS011;56303;52.160;-0.428;2023-02-28T07:44:18;6.83;;;4.43;;
20743;SDS011;56303;52.160;-0.428;2023-02-28T07:46:45;6.40;;;4.50;;
20743;SDS011;56303;52.160;-0.428;2023-02-28T07:49:12;5.43;;;3.87;;
20743;SDS011;56303;52.160;-0.428;2023-02-28T07:51:39;5.97;;;4.00;;
20743;SDS011;56303;52.160;-0.428;2023-02-28T07:54:06;6.20;;;3.83;;
20743;SDS011;56303;52.160;-0.428;2023-02-28T07:56:32;8.10;;;4.77;;
20743;SDS011;56303;52.160;-0.428;2023-02-28T07:58:59;7.63;;;4.03;;
20743;SDS011;56303;52.160;-0.428;2023-02-28T08:01:27;6.07;;;3.30;;
20743;SDS011;56303;52.160;-0.428;2023-02-28T08:03:55;6.17;;;3.37;;
20743;SDS011;56303;52.160;-0.428;2023-02-28T08:06:23;5.50;;;3.30;;
20743;SDS011;56303;52.160;-0.428;2023-02-28T08:08:52;4.70;;;2.70;;
20743;SDS011;56303;52.160;-0.428;2023-02-28T08:11:19;5.73;;;2.80;;
20743;SDS011;56303;52.160;-0.428;2023-02-28T08:13:46;4.97;;;3.67;;
20743;SDS011;56303;52.160;-0.428;2023-02-28T08:16:13;7.07;;;3.27;;
20743;SDS011;56303;52.160;-0.428;2023-02-28T08:18:44;6.27;;;3.77;;
20743;SDS011;56303;52.160;-0.428;2023-02-28T08:21:11;6.40;;;3.13;;
20743;SDS011;56303;52.160;-0.428;2023-02-28T08:23:38;5.33;;;3.27;;
20743;SDS011;56303;52.160;-0.428;2023-02-28T08:26:05;5.77;;;3.80;;
20743;SDS011;56303;52.160;-0.428;2023-02-28T08:28:32;5.43;;;3.93;;
20743;SDS011;56303;52.160;-0.428;2023-02-28T08:30:59;5.20;;;3.70;;
20743;SDS011;56303;52.160;-0.428;2023-02-28T08:33:27;7.33;;;4.33;;
20743;SDS011;56303;52.160;-0.428;2023-02-28T08:35:54;8.63;;;4.13;;
20743;SDS011;56303;52.160;-0.428;2023-02-28T08:38:22;6.43;;;4.30;;
20743;SDS011;56303;52.160;-0.428;2023-02-28T08:40:49;8.27;;;4.57;;
20743;SDS011;56303;52.160;-0.428;2023-02-28T08:43:23;7.10;;;4.70;;
20743;SDS011;56303;52.160;-0.428;2023-02-28T08:45:53;9.13;;;5.30;;
20743;SDS011;56303;52.160;-0.428;2023-02-28T08:48:23;7.20;;;5.00;;
20743;SDS011;56303;52.160;-0.428;2023-02-28T08:53:33;8.90;;;4.90;;
20743;SDS011;56303;52.160;-0.428;2023-02-28T08:56:03;6.50;;;4.70;;
20743;SDS011;56303;52.160;-0.428;2023-02-28T08:58:32;7.87;;;4.43;;
20743;SDS011;56303;52.160;-0.428;2023-02-28T09:01:00;6.63;;;4.23;;
20743;SDS011;56303;52.160;-0.428;2023-02-28T09:03:34;6.03;;;4.30;;
20743;SDS011;56303;52.160;-0.428;2023-02-28T09:06:01;7.50;;;5.47;;
20743;SDS011;56303;52.160;-0.428;2023-02-28T09:08:29;9.07;;;5.40;;
20743;SDS011;56303;52.160;-0.428;2023-02-28T09:10:57;9.60;;;5.53;;
20743;SDS011;56303;52.160;-0.428;2023-02-28T09:13:27;9.57;;;4.63;;
20743;SDS011;56303;52.160;-0.428;2023-02-28T09:15:57;6.77;;;4.97;;
20743;SDS011;56303;52.160;-0.428;2023-02-28T09:18:25;6.30;;;4.70;;
20743;SDS011;56303;52.160;-0.428;2023-02-28T09:20:53;6.50;;;4.13;;
20743;SDS011;56303;52.160;-0.428;2023-02-28T09:23:20;6.53;;;4.20;;
20743;SDS011;56303;52.160;-0.428;2023-02-28T09:25:48;6.73;;;4.63;;
20743;SDS011;56303;52.160;-0.428;2023-02-28T09:28:17;6.43;;;4.53;;
20743;SDS011;56303;52.160;-0.428;2023-02-28T09:30:45;7.90;;;4.63;;
20743;SDS011;56303;52.160;-0.428;2023-02-28T09:33:13;6.40;;;4.67;;
20743;SDS011;56303;52.160;-0.428;2023-02-28T09:35:41;5.30;;;3.50;;
20743;SDS011;56303;52.160;-0.428;2023-02-28T09:38:09;6.50;;;4.07;;
20743;SDS011;56303;52.160;-0.428;2023-02-28T09:40:37;6.13;;;4.27;;
20743;SDS011;56303;52.160;-0.428;2023-02-28T09:43:14;6.20;;;3.73;;
20743;SDS011;56303;52.160;-0.428;2023-02-28T09:45:50;4.97;;;3.77;;
20743;SDS011;56303;52.160;-0.428;2023-02-28T09:48:26;5.60;;;3.90;;
20743;SDS011;56303;52.160;-0.428;2023-02-28T09:53:58;5.83;;;3.80;;
20743;SDS011;56303;52.160;-0.428;2023-02-28T09:56:33;6.57;;;4.10;;
20743;SDS011;56303;52.160;-0.428;2023-02-28T09:59:32;7.17;;;4.07;;
20743;SDS011;56303;52.160;-0.428;2023-02-28T10:02:04;6.53;;;3.97;;
20743;SDS011;56303;52.160;-0.428;2023-02-28T10:04:51;4.90;;;3.10;;
20743;SDS011;56303;52.160;-0.428;2023-02-28T10:10:29;4.30;;;2.97;;
20743;SDS011;56303;52.160;-0.428;2023-02-28T10:13:02;4.00;;;2.57;;
20743;SDS011;56303;52.160;-0.428;2023-02-28T10:15:34;4.70;;;3.07;;
20743;SDS011;56303;52.160;-0.428;2023-02-28T10:18:24;4.07;;;2.67;;
20743;SDS011;56303;52.160;-0.428;2023-02-28T10:20:57;4.50;;;2.50;;
20743;SDS011;56303;52.160;-0.428;2023-02-28T10:23:34;3.53;;;2.33;;
20743;SDS011;56303;52.160;-0.428;2023-02-28T10:26:08;3.80;;;2.40;;
20743;SDS011;56303;52.160;-0.428;2023-02-28T10:28:39;4.03;;;2.47;;
20743;SDS011;56303;52.160;-0.428;2023-02-28T10:31:09;3.43;;;2.33;;
20743;SDS011;56303;52.160;-0.428;2023-02-28T10:33:43;3.80;;;2.40;;
20743;SDS011;56303;52.160;-0.428;2023-02-28T10:36:13;3.97;;;2.57;;
20743;SDS011;56303;52.160;-0.428;2023-02-28T10:38:43;3.50;;;2.03;;
20743;SDS011;56303;52.160;-0.428;2023-02-28T10:41:30;3.03;;;1.90;;
20743;SDS011;56303;52.160;-0.428;2023-02-28T10:44:36;4.67;;;2.60;;
20743;SDS011;56303;52.160;-0.428;2023-02-28T10:46:55;3.67;;;2.43;;
20743;SDS011;56303;52.160;-0.428;2023-02-28T10:49:24;3.07;;;2.20;;
20743;SDS011;56303;52.160;-0.428;2023-02-28T10:51:57;2.87;;;2.33;;
20743;SDS011;56303;52.160;-0.428;2023-02-28T10:54:30;4.10;;;2.67;;
20743;SDS011;56303;52.160;-0.428;2023-02-28T10:57:06;3.83;;;2.30;;
20743;SDS011;56303;52.160;-0.428;2023-02-28T10:59:45;3.83;;;2.57;;
20743;SDS011;56303;52.160;-0.428;2023-02-28T11:02:35;2.70;;;2.03;;
20743;SDS011;56303;52.160;-0.428;2023-02-28T11:08:06;2.33;;;1.80;;
20743;SDS011;56303;52.160;-0.428;2023-02-28T11:10:54;3.03;;;2.00;;
20743;SDS011;56303;52.160;-0.428;2023-02-28T11:13:33;2.73;;;1.53;;
20743;SDS011;56303;52.160;-0.428;2023-02-28T11:16:05;2.17;;;1.83;;
20743;SDS011;56303;52.160;-0.428;2023-02-28T11:18:43;4.20;;;2.17;;
20743;SDS011;56303;52.160;-0.428;2023-02-28T11:24:00;2.63;;;2.00;;
20743;SDS011;56303;52.160;-0.428;2023-02-28T11:26:41;3.63;;;2.20;;
20743;SDS011;56303;52.160;-0.428;2023-02-28T11:29:12;2.93;;;1.80;;
20743;SDS011;56303;52.160;-0.428;2023-02-28T11:34:34;3.37;;;2.07;;
20743;SDS011;56303;52.160;-0.428;2023-02-28T11:37:03;2.77;;;1.60;;
20743;SDS011;56303;52.160;-0.428;2023-02-28T11:39:32;2.10;;;1.53;;
20743;SDS011;56303;52.160;-0.428;2023-02-28T11:44:45;1.60;;;1.30;;
20743;SDS011;56303;52.160;-0.428;2023-02-28T11:47:36;2.23;;;1.70;;
20743;SDS011;56303;52.160;-0.428;2023-02-28T11:50:18;2.80;;;1.80;;
20743;SDS011;56303;52.160;-0.428;2023-02-28T12:00:48;3.67;;;2.23;;
20743;SDS011;56303;52.160;-0.428;2023-02-28T12:11:31;2.50;;;1.77;;
20743;SDS011;56303;52.160;-0.428;2023-02-28T12:22:52;1.67;;;1.40;;
20743;SDS011;56303;52.160;-0.428;2023-02-28T12:28:09;3.40;;;1.80;;
20743;SDS011;56303;52.160;-0.428;2023-02-28T12:30:46;3.07;;;1.67;;
20743;SDS011;56303;52.160;-0.428;2023-02-28T12:33:26;2.20;;;1.77;;
20743;SDS011;56303;52.160;-0.428;2023-02-28T12:36:00;3.83;;;1.70;;
20743;SDS011;56303;52.160;-0.428;2023-02-28T12:38:37;1.90;;;1.53;;
20743;SDS011;56303;52.160;-0.428;2023-02-28T12:41:16;2.43;;;1.60;;
20743;SDS011;56303;52.160;-0.428;2023-02-28T12:44:09;2.87;;;2.10;;
20743;SDS011;56303;52.160;-0.428;2023-02-28T12:46:59;2.93;;;2.20;;
20743;SDS011;56303;52.160;-0.428;2023-02-28T12:49:33;3.60;;;1.90;;
20743;SDS011;56303;52.160;-0.428;2023-02-28T12:52:04;1.83;;;1.50;;
20743;SDS011;56303;52.160;-0.428;2023-02-28T12:54:42;2.83;;;1.60;;
20743;SDS011;56303;52.160;-0.428;2023-02-28T12:57:27;1.50;;;1.40;;
20743;SDS011;56303;52.160;-0.428;2023-02-28T13:00:19;1.83;;;1.40;;
20743;SDS011;56303;52.160;-0.428;2023-02-28T13:03:03;2.03;;;1.50;;
20743;SDS011;56303;52.160;-0.428;2023-02-28T13:09:17;2.77;;;1.50;;
20743;SDS011;56303;52.160;-0.428;2023-02-28T13:11:46;2.13;;;1.43;;
20743;SDS011;56303;52.160;-0.428;2023-02-28T13:22:05;2.53;;;1.60;;
20743;SDS011;56303;52.160;-0.428;2023-02-28T13:24:43;2.77;;;1.53;;
20743;SDS011;56303;52.160;-0.428;2023-02-28T13:27:22;2.30;;;1.60;;
20743;SDS011;56303;52.160;-0.428;2023-02-28T13:29:57;2.50;;;1.37;;
20743;SDS011;56303;52.160;-0.428;2023-02-28T13:42:32;3.37;;;1.30;;
20743;SDS011;56303;52.160;-0.428;2023-02-28T13:47:35;1.20;;;0.80;;
20743;SDS011;56303;52.160;-0.428;2023-02-28T14:06:37;1.83;;;1.10;;
20743;SDS011;56303;52.160;-0.428;2023-02-28T14:09:32;0.93;;;0.93;;
20743;SDS011;56303;52.160;-0.428;2023-02-28T14:17:53;1.47;;;1.37;;
20743;SDS011;56303;52.160;-0.428;2023-02-28T14:20:25;1.13;;;1.03;;
20743;SDS011;56303;52.160;-0.428;2023-02-28T14:25:34;3.03;;;1.93;;
20743;SDS011;56303;52.160;-0.428;2023-02-28T14:31:15;4.70;;;1.47;;
20743;SDS011;56303;52.160;-0.428;2023-02-28T14:34:11;1.20;;;1.10;;
20743;SDS011;56303;52.160;-0.428;2023-02-28T14:36:43;2.50;;;1.50;;
20743;SDS011;56303;52.160;-0.428;2023-02-28T14:39:14;1.97;;;1.30;;
20743;SDS011;56303;52.160;-0.428;2023-02-28T14:41:45;2.47;;;1.57;;
20743;SDS011;56303;52.160;-0.428;2023-02-28T14:44:23;3.93;;;2.87;;
20743;SDS011;56303;52.160;-0.428;2023-02-28T14:46:59;3.73;;;2.73;;
20743;SDS011;56303;52.160;-0.428;2023-02-28T14:49:42;7.80;;;2.97;;
20743;SDS011;56303;52.160;-0.428;2023-02-28T14:54:38;4.43;;;3.07;;
20743;SDS011;56303;52.160;-0.428;2023-02-28T14:57:20;7.17;;;5.40;;
20743;SDS011;56303;52.160;-0.428;2023-02-28T15:02:48;5.40;;;3.03;;
20743;SDS011;56303;52.160;-0.428;2023-02-28T15:07:43;3.13;;;1.30;;
20743;SDS011;56303;52.160;-0.428;2023-02-28T15:12:58;0.67;;;0.67;;
20743;SDS011;56303;52.160;-0.428;2023-02-28T15:15:35;1.73;;;0.70;;
20743;SDS011;56303;52.160;-0.428;2023-02-28T15:21:11;0.60;;;0.60;;
20743;SDS011;56303;52.160;-0.428;2023-02-28T15:23:45;0.70;;;0.70;;
20743;SDS011;56303;52.160;-0.428;2023-02-28T15:26:18;3.20;;;1.77;;
20743;SDS011;56303;52.160;-0.428;2023-02-28T15:28:56;2.23;;;1.03;;
20743;SDS011;56303;52.160;-0.428;2023-02-28T15:31:32;0.67;;;0.67;;
20743;SDS011;56303;52.160;-0.428;2023-02-28T15:34:43;2.27;;;1.30;;
20743;SDS011;56303;52.160;-0.428;2023-02-28T15:43:25;1.90;;;1.30;;
20743;SDS011;56303;52.160;-0.428;2023-02-28T15:48:52;1.53;;;0.90;;
20743;SDS011;56303;52.160;-0.428;2023-02-28T15:51:24;1.63;;;1.40;;
20743;SDS011;56303;52.160;-0.428;2023-02-28T15:54:00;4.07;;;2.67;;
20743;SDS011;56303;52.160;-0.428;2023-02-28T15:56:31;2.33;;;1.53;;
20743;SDS011;56303;52.160;-0.428;2023-02-28T15:59:00;2.27;;;1.30;;
20743;SDS011;56303;52.160;-0.428;2023-02-28T16:01:31;3.13;;;1.47;;
20743;SDS011;56303;52.160;-0.428;2023-02-28T16:04:01;2.37;;;1.40;;
20743;SDS011;56303;52.160;-0.428;2023-02-28T16:06:39;3.90;;;1.97;;
20743;SDS011;56303;52.160;-0.428;2023-02-28T16:09:09;2.30;;;1.53;;
20743;SDS011;56303;52.160;-0.428;2023-02-28T16:11:40;2.97;;;1.57;;
20743;SDS011;56303;52.160;-0.428;2023-02-28T16:14:14;1.63;;;1.43;;
20743;SDS011;56303;52.160;-0.428;2023-02-28T16:16:46;1.50;;;1.17;;
20743;SDS011;56303;52.160;-0.428;2023-02-28T16:19:16;5.13;;;2.43;;
20743;SDS011;56303;52.160;-0.428;2023-02-28T16:21:44;4.57;;;1.87;;
20743;SDS011;56303;52.160;-0.428;2023-02-28T16:24:11;2.00;;;1.50;;
20743;SDS011;56303;52.160;-0.428;2023-02-28T16:26:39;2.30;;;1.40;;
20743;SDS011;56303;52.160;-0.428;2023-02-28T16:29:08;3.40;;;1.60;;
20743;SDS011;56303;52.160;-0.428;2023-02-28T16:31:40;2.97;;;1.30;;
20743;SDS011;56303;52.160;-0.428;2023-02-28T16:34:07;3.70;;;1.33;;
20743;SDS011;56303;52.160;-0.428;2023-02-28T16:36:34;2.50;;;1.30;;
20743;SDS011;56303;52.160;-0.428;2023-02-28T16:39:01;2.97;;;1.10;;
20743;SDS011;56303;52.160;-0.428;2023-02-28T16:41:29;3.40;;;1.10;;
20743;SDS011;56303;52.160;-0.428;2023-02-28T16:43:56;2.13;;;0.97;;
20743;SDS011;56303;52.160;-0.428;2023-02-28T16:46:35;2.03;;;1.43;;
20743;SDS011;56303;52.160;-0.428;2023-02-28T16:49:02;3.50;;;1.60;;
20743;SDS011;56303;52.160;-0.428;2023-02-28T16:51:29;2.03;;;1.30;;
20743;SDS011;56303;52.160;-0.428;2023-02-28T16:53:59;2.53;;;1.00;;
20743;SDS011;56303;52.160;-0.428;2023-02-28T16:56:26;1.87;;;1.23;;
20743;SDS011;56303;52.160;-0.428;2023-02-28T16:58:53;6.00;;;2.63;;
20743;SDS011;56303;52.160;-0.428;2023-02-28T17:01:23;3.10;;;1.20;;
20743;SDS011;56303;52.160;-0.428;2023-02-28T17:03:50;2.73;;;1.57;;
20743;SDS011;56303;52.160;-0.428;2023-02-28T17:06:18;3.20;;;1.20;;
20743;SDS011;56303;52.160;-0.428;2023-02-28T17:08:48;1.47;;;0.60;;
20743;SDS011;56303;52.160;-0.428;2023-02-28T17:11:17;0.60;;;0.57;;
20743;SDS011;56303;52.160;-0.428;2023-02-28T17:13:44;1.17;;;0.70;;
20743;SDS011;56303;52.160;-0.428;2023-02-28T17:16:29;1.77;;;0.93;;
20743;SDS011;56303;52.160;-0.428;2023-02-28T17:18:59;1.03;;;0.70;;
20743;SDS011;56303;52.160;-0.428;2023-02-28T17:21:28;0.80;;;0.77;;
20743;SDS011;56303;52.160;-0.428;2023-02-28T17:24:00;1.67;;;0.70;;
20743;SDS011;56303;52.160;-0.428;2023-02-28T17:26:26;0.53;;;0.53;;
20743;SDS011;56303;52.160;-0.428;2023-02-28T17:28:55;1.53;;;1.20;;
20743;SDS011;56303;52.160;-0.428;2023-02-28T17:31:24;2.30;;;1.20;;
20743;SDS011;56303;52.160;-0.428;2023-02-28T17:33:53;1.43;;;0.67;;
20743;SDS011;56303;52.160;-0.428;2023-02-28T17:36:22;1.23;;;0.80;;